sensor_id;sensor_type;location;lat;lon;timestamp;pressure;altitude;pressure_sealevel;temperature;humidity
29935;BME280;19905;53.370;-6.314;2023-07-30T00:00:31;100063.84;;;13.92;100.00
29935;BME280;19905;53.370;-6.314;2023-07-30T00:03:00;100068.50;;;13.90;100.00
29935;BME280;19905;53.370;-6.314;2023-07-30T00:05:28;100069.34;;;13.90;100.00
29935;BME280;19905;53.370;-6.314;2023-07-30T00:07:57;100075.78;;;13.88;100.00
29935;BME280;19905;53.370;-6.314;2023-07-30T00:10:27;100069.13;;;13.84;100.00
29935;BME280;19905;53.370;-6.314;2023-07-30T00:12:55;100071.31;;;13.88;100.00
29935;BME280;19905;53.370;-6.314;2023-07-30T00:15:24;100058.97;;;13.79;100.00
29935;BME280;19905;53.370;-6.314;2023-07-30T00:17:52;100076.69;;;13.79;100.00
29935;BME280;19905;53.370;-6.314;2023-07-30T00:20:21;100063.66;;;13.85;100.00
29935;BME280;19905;53.370;-6.314;2023-07-30T00:22:50;100053.03;;;13.85;100.00
29935;BME280;19905;53.370;-6.314;2023-07-30T00:25:18;100075.63;;;13.89;100.00
29935;BME280;19905;53.370;-6.314;2023-07-30T00:27:48;100069.16;;;13.92;100.00
29935;BME280;19905;53.370;-6.314;2023-07-30T00:30:16;100077.38;;;13.98;100.00
29935;BME280;19905;53.370;-6.314;2023-07-30T00:32:45;100069.88;;;13.94;100.00
29935;BME280;19905;53.370;-6.314;2023-07-30T00:35:14;100075.31;;;13.92;100.00
29935;BME280;19905;53.370;-6.314;2023-07-30T00:37:42;100076.66;;;13.96;100.00
29935;BME280;19905;53.370;-6.314;2023-07-30T00:40:12;100079.31;;;13.96;100.00
29935;BME280;19905;53.370;-6.314;2023-07-30T00:42:40;100084.81;;;13.95;100.00
29935;BME280;19905;53.370;-6.314;2023-07-30T00:45:11;100080.16;;;13.97;100.00
29935;BME280;19905;53.370;-6.314;2023-07-30T00:47:40;100072.81;;;13.91;100.00
29935;BME280;19905;53.370;-6.314;2023-07-30T00:50:11;100083.59;;;13.89;100.00
29935;BME280;19905;53.370;-6.314;2023-07-30T00:52:41;100082.31;;;13.93;100.00
29935;BME280;19905;53.370;-6.314;2023-07-30T00:55:11;100083.34;;;14.01;100.00
29935;BME280;19905;53.370;-6.314;2023-07-30T00:57:40;100090.28;;;13.93;100.00
29935;BME280;19905;53.370;-6.314;2023-07-30T01:00:12;100085.88;;;14.02;100.00
29935;BME280;19905;53.370;-6.314;2023-07-30T01:02:41;100083.69;;;13.97;100.00
29935;BME280;19905;53.370;-6.314;2023-07-30T01:05:10;100100.72;;;13.95;100.00
29935;BME280;19905;53.370;-6.314;2023-07-30T01:07:38;100110.34;;;13.96;100.00
29935;BME280;19905;53.370;-6.314;2023-07-30T01:10:07;100094.50;;;14.04;100.00
29935;BME280;19905;53.370;-6.314;2023-07-30T01:12:37;100102.25;;;13.97;100.00
29935;BME280;19905;53.370;-6.314;2023-07-30T01:15:07;100103.75;;;14.00;100.00
29935;BME280;19905;53.370;-6.314;2023-07-30T01:17:39;100111.19;;;13.96;100.00
29935;BME280;19905;53.370;-6.314;2023-07-30T01:20:08;100112.47;;;13.92;100.00
29935;BME280;19905;53.370;-6.314;2023-07-30T01:22:40;100105.88;;;13.96;100.00
29935;BME280;19905;53.370;-6.314;2023-07-30T01:25:08;100101.56;;;13.95;100.00
29935;BME280;19905;53.370;-6.314;2023-07-30T01:27:40;100111.81;;;13.90;100.00
29935;BME280;19905;53.370;-6.314;2023-07-30T01:30:16;100123.72;;;13.86;100.00
29935;BME280;19905;53.370;-6.314;2023-07-30T01:32:49;100115.22;;;13.83;100.00
29935;BME280;19905;53.370;-6.314;2023-07-30T01:35:20;100117.38;;;13.79;100.00
29935;BME280;19905;53.370;-6.314;2023-07-30T01:37:51;100128.13;;;13.78;100.00
29935;BME280;19905;53.370;-6.314;2023-07-30T01:40:20;100120.31;;;13.76;100.00
29935;BME280;19905;53.370;-6.314;2023-07-30T01:42:49;100129.41;;;13.73;100.00
29935;BME280;19905;53.370;-6.314;2023-07-30T01:45:20;100124.88;;;13.84;100.00
29935;BME280;19905;53.370;-6.314;2023-07-30T01:47:48;100110.69;;;13.75;100.00
29935;BME280;19905;53.370;-6.314;2023-07-30T01:50:17;100128.56;;;13.73;100.00
29935;BME280;19905;53.370;-6.314;2023-07-30T01:52:46;100131.78;;;13.77;100.00
29935;BME280;19905;53.370;-6.314;2023-07-30T01:55:16;100132.22;;;13.72;100.00
29935;BME280;19905;53.370;-6.314;2023-07-30T01:57:44;100137.25;;;13.75;100.00
29935;BME280;19905;53.370;-6.314;2023-07-30T02:00:14;100152.47;;;13.73;100.00
29935;BME280;19905;53.370;-6.314;2023-07-30T02:02:42;100156.13;;;13.72;100.00
29935;BME280;19905;53.370;-6.314;2023-07-30T02:05:11;100144.50;;;13.73;100.00
29935;BME280;19905;53.370;-6.314;2023-07-30T02:07:40;100152.09;;;13.68;100.00
29935;BME280;19905;53.370;-6.314;2023-07-30T02:10:09;100149.97;;;13.71;100.00
29935;BME280;19905;53.370;-6.314;2023-07-30T02:12:39;100160.78;;;13.60;100.00
29935;BME280;19905;53.370;-6.314;2023-07-30T02:15:08;100169.47;;;13.35;100.00
29935;BME280;19905;53.370;-6.314;2023-07-30T02:17:36;100201.22;;;13.17;100.00
29935;BME280;19905;53.370;-6.314;2023-07-30T02:20:07;100189.84;;;13.07;100.00
29935;BME280;19905;53.370;-6.314;2023-07-30T02:22:36;100203.38;;;13.04;100.00
29935;BME280;19905;53.370;-6.314;2023-07-30T02:25:05;100219.16;;;12.95;100.00
29935;BME280;19905;53.370;-6.314;2023-07-30T02:27:34;100234.50;;;12.92;100.00
29935;BME280;19905;53.370;-6.314;2023-07-30T02:30:05;100228.69;;;12.88;100.00
29935;BME280;19905;53.370;-6.314;2023-07-30T02:32:34;100229.13;;;12.84;100.00
29935;BME280;19905;53.370;-6.314;2023-07-30T02:35:04;100230.38;;;12.80;100.00
29935;BME280;19905;53.370;-6.314;2023-07-30T02:37:32;100232.47;;;12.76;100.00
29935;BME280;19905;53.370;-6.314;2023-07-30T02:40:01;100234.97;;;12.78;100.00
29935;BME280;19905;53.370;-6.314;2023-07-30T02:42:32;100234.84;;;12.79;100.00
29935;BME280;19905;53.370;-6.314;2023-07-30T02:45:00;100236.22;;;12.83;100.00
29935;BME280;19905;53.370;-6.314;2023-07-30T02:47:30;100239.56;;;12.85;100.00
29935;BME280;19905;53.370;-6.314;2023-07-30T02:49:59;100237.91;;;12.84;100.00
29935;BME280;19905;53.370;-6.314;2023-07-30T02:52:27;100240.13;;;12.89;100.00
29935;BME280;19905;53.370;-6.314;2023-07-30T02:54:56;100241.63;;;12.91;100.00
29935;BME280;19905;53.370;-6.314;2023-07-30T02:57:24;100233.84;;;12.90;100.00
29935;BME280;19905;53.370;-6.314;2023-07-30T02:59:53;100235.38;;;12.92;100.00
29935;BME280;19905;53.370;-6.314;2023-07-30T03:02:21;100236.72;;;12.96;100.00
29935;BME280;19905;53.370;-6.314;2023-07-30T03:04:51;100229.75;;;12.95;100.00
29935;BME280;19905;53.370;-6.314;2023-07-30T03:07:23;100228.09;;;12.94;100.00
29935;BME280;19905;53.370;-6.314;2023-07-30T03:09:52;100232.56;;;12.94;100.00
29935;BME280;19905;53.370;-6.314;2023-07-30T03:12:21;100212.44;;;13.01;100.00
29935;BME280;19905;53.370;-6.314;2023-07-30T03:14:49;100224.63;;;12.94;100.00
29935;BME280;19905;53.370;-6.314;2023-07-30T03:17:18;100217.78;;;12.91;100.00
29935;BME280;19905;53.370;-6.314;2023-07-30T03:19:46;100222.94;;;12.93;100.00
29935;BME280;19905;53.370;-6.314;2023-07-30T03:22:16;100210.22;;;12.96;100.00
29935;BME280;19905;53.370;-6.314;2023-07-30T03:24:46;100218.88;;;12.98;100.00
29935;BME280;19905;53.370;-6.314;2023-07-30T03:27:14;100222.63;;;12.96;100.00
29935;BME280;19905;53.370;-6.314;2023-07-30T03:29:43;100217.75;;;13.01;100.00
29935;BME280;19905;53.370;-6.314;2023-07-30T03:32:12;100239.38;;;13.06;100.00
29935;BME280;19905;53.370;-6.314;2023-07-30T03:34:41;100223.31;;;13.08;100.00
29935;BME280;19905;53.370;-6.314;2023-07-30T03:37:09;100214.69;;;13.06;100.00
29935;BME280;19905;53.370;-6.314;2023-07-30T03:39:39;100237.31;;;12.90;100.00
29935;BME280;19905;53.370;-6.314;2023-07-30T03:42:07;100225.47;;;12.85;100.00
29935;BME280;19905;53.370;-6.314;2023-07-30T03:44:36;100236.91;;;12.85;100.00
29935;BME280;19905;53.370;-6.314;2023-07-30T03:47:04;100234.81;;;12.89;100.00
29935;BME280;19905;53.370;-6.314;2023-07-30T03:49:33;100231.03;;;12.91;100.00
29935;BME280;19905;53.370;-6.314;2023-07-30T03:52:02;100229.22;;;12.92;100.00
29935;BME280;19905;53.370;-6.314;2023-07-30T03:54:42;100234.94;;;12.97;100.00
29935;BME280;19905;53.370;-6.314;2023-07-30T03:57:10;100229.50;;;12.98;100.00
29935;BME280;19905;53.370;-6.314;2023-07-30T03:59:39;100232.53;;;13.04;100.00
29935;BME280;19905;53.370;-6.314;2023-07-30T04:02:07;100232.25;;;13.07;100.00
29935;BME280;19905;53.370;-6.314;2023-07-30T04:04:36;100237.25;;;13.10;100.00
29935;BME280;19905;53.370;-6.314;2023-07-30T04:07:04;100243.69;;;13.07;100.00
29935;BME280;19905;53.370;-6.314;2023-07-30T04:09:33;100224.44;;;13.05;100.00
29935;BME280;19905;53.370;-6.314;2023-07-30T04:12:04;100222.44;;;13.17;100.00
29935;BME280;19905;53.370;-6.314;2023-07-30T04:14:32;100227.63;;;13.09;100.00
29935;BME280;19905;53.370;-6.314;2023-07-30T04:17:01;100226.78;;;13.08;100.00
29935;BME280;19905;53.370;-6.314;2023-07-30T04:19:29;100231.13;;;13.09;100.00
29935;BME280;19905;53.370;-6.314;2023-07-30T04:21:58;100224.53;;;13.13;100.00
29935;BME280;19905;53.370;-6.314;2023-07-30T04:24:26;100226.22;;;13.14;100.00
29935;BME280;19905;53.370;-6.314;2023-07-30T04:26:55;100234.72;;;13.18;100.00
29935;BME280;19905;53.370;-6.314;2023-07-30T04:29:25;100239.63;;;13.13;100.00
29935;BME280;19905;53.370;-6.314;2023-07-30T04:31:54;100225.78;;;13.19;100.00
29935;BME280;19905;53.370;-6.314;2023-07-30T04:34:23;100225.25;;;13.15;100.00
29935;BME280;19905;53.370;-6.314;2023-07-30T04:36:52;100239.47;;;13.14;100.00
29935;BME280;19905;53.370;-6.314;2023-07-30T04:39:20;100226.22;;;13.14;100.00
29935;BME280;19905;53.370;-6.314;2023-07-30T04:41:49;100228.41;;;13.19;100.00
29935;BME280;19905;53.370;-6.314;2023-07-30T04:44:17;100226.91;;;13.16;100.00
29935;BME280;19905;53.370;-6.314;2023-07-30T04:46:47;100229.72;;;13.15;100.00
29935;BME280;19905;53.370;-6.314;2023-07-30T04:49:16;100240.19;;;13.16;100.00
29935;BME280;19905;53.370;-6.314;2023-07-30T04:51:45;100228.41;;;13.19;100.00
29935;BME280;19905;53.370;-6.314;2023-07-30T04:54:14;100232.78;;;13.20;100.00
29935;BME280;19905;53.370;-6.314;2023-07-30T04:56:42;100236.38;;;13.19;100.00
29935;BME280;19905;53.370;-6.314;2023-07-30T04:59:11;100243.81;;;13.15;100.00
29935;BME280;19905;53.370;-6.314;2023-07-30T05:01:39;100234.72;;;13.18;100.00
29935;BME280;19905;53.370;-6.314;2023-07-30T05:04:09;100237.25;;;13.19;100.00
29935;BME280;19905;53.370;-6.314;2023-07-30T05:06:38;100247.84;;;13.19;100.00
29935;BME280;19905;53.370;-6.314;2023-07-30T05:09:06;100246.59;;;13.14;100.00
29935;BME280;19905;53.370;-6.314;2023-07-30T05:11:36;100257.59;;;13.19;100.00
29935;BME280;19905;53.370;-6.314;2023-07-30T05:14:05;100247.41;;;13.14;100.00
29935;BME280;19905;53.370;-6.314;2023-07-30T05:16:33;100261.53;;;13.15;100.00
29935;BME280;19905;53.370;-6.314;2023-07-30T05:19:03;100253.59;;;13.15;100.00
29935;BME280;19905;53.370;-6.314;2023-07-30T05:21:33;100251.78;;;13.15;100.00
29935;BME280;19905;53.370;-6.314;2023-07-30T05:24:02;100247.56;;;13.13;100.00
29935;BME280;19905;53.370;-6.314;2023-07-30T05:26:31;100254.69;;;13.22;100.00
29935;BME280;19905;53.370;-6.314;2023-07-30T05:28:59;100261.66;;;13.23;100.00
29935;BME280;19905;53.370;-6.314;2023-07-30T05:31:28;100266.41;;;13.19;100.00
29935;BME280;19905;53.370;-6.314;2023-07-30T05:33:57;100258.31;;;13.21;100.00
29935;BME280;19905;53.370;-6.314;2023-07-30T05:36:25;100274.66;;;13.26;100.00
29935;BME280;19905;53.370;-6.314;2023-07-30T05:38:56;100263.19;;;13.26;100.00
29935;BME280;19905;53.370;-6.314;2023-07-30T05:41:24;100270.72;;;13.20;100.00
29935;BME280;19905;53.370;-6.314;2023-07-30T05:43:53;100267.09;;;13.21;100.00
29935;BME280;19905;53.370;-6.314;2023-07-30T05:46:21;100270.59;;;13.22;100.00
29935;BME280;19905;53.370;-6.314;2023-07-30T05:48:50;100276.31;;;13.17;100.00
29935;BME280;19905;53.370;-6.314;2023-07-30T05:51:18;100283.00;;;13.21;100.00
29935;BME280;19905;53.370;-6.314;2023-07-30T05:53:47;100282.75;;;13.25;100.00
29935;BME280;19905;53.370;-6.314;2023-07-30T05:56:17;100278.41;;;13.23;100.00
29935;BME280;19905;53.370;-6.314;2023-07-30T05:58:47;100276.59;;;13.34;100.00
29935;BME280;19905;53.370;-6.314;2023-07-30T06:01:16;100281.13;;;13.41;100.00
29935;BME280;19905;53.370;-6.314;2023-07-30T06:03:44;100303.63;;;13.47;100.00
29935;BME280;19905;53.370;-6.314;2023-07-30T06:06:13;100297.00;;;13.51;100.00
29935;BME280;19905;53.370;-6.314;2023-07-30T06:08:41;100297.06;;;13.41;100.00
29935;BME280;19905;53.370;-6.314;2023-07-30T06:11:10;100317.91;;;13.17;100.00
29935;BME280;19905;53.370;-6.314;2023-07-30T06:13:40;100305.25;;;13.11;100.00
29935;BME280;19905;53.370;-6.314;2023-07-30T06:16:09;100300.47;;;13.14;100.00
29935;BME280;19905;53.370;-6.314;2023-07-30T06:18:38;100312.88;;;13.14;100.00
29935;BME280;19905;53.370;-6.314;2023-07-30T06:21:07;100308.72;;;13.11;100.00
29935;BME280;19905;53.370;-6.314;2023-07-30T06:23:35;100304.09;;;13.13;100.00
29935;BME280;19905;53.370;-6.314;2023-07-30T06:26:04;100306.31;;;13.18;100.00
29935;BME280;19905;53.370;-6.314;2023-07-30T06:28:32;100319.19;;;13.22;100.00
29935;BME280;19905;53.370;-6.314;2023-07-30T06:31:03;100317.25;;;13.25;100.00
29935;BME280;19905;53.370;-6.314;2023-07-30T06:33:31;100314.94;;;13.39;100.00
29935;BME280;19905;53.370;-6.314;2023-07-30T06:36:00;100312.56;;;13.36;100.00
29935;BME280;19905;53.370;-6.314;2023-07-30T06:38:28;100310.06;;;13.35;100.00
29935;BME280;19905;53.370;-6.314;2023-07-30T06:40:57;100310.91;;;13.35;100.00
29935;BME280;19905;53.370;-6.314;2023-07-30T06:43:25;100308.66;;;13.40;100.00
29935;BME280;19905;53.370;-6.314;2023-07-30T06:45:54;100298.00;;;13.50;100.00
29935;BME280;19905;53.370;-6.314;2023-07-30T06:48:24;100303.06;;;13.43;100.00
29935;BME280;19905;53.370;-6.314;2023-07-30T06:50:53;100296.38;;;13.39;100.00
29935;BME280;19905;53.370;-6.314;2023-07-30T06:53:22;100301.41;;;13.42;100.00
29935;BME280;19905;53.370;-6.314;2023-07-30T06:55:50;100297.00;;;13.51;100.00
29935;BME280;19905;53.370;-6.314;2023-07-30T06:58:19;100290.69;;;13.62;100.00
29935;BME280;19905;53.370;-6.314;2023-07-30T07:00:48;100300.03;;;13.66;100.00
29935;BME280;19905;53.370;-6.314;2023-07-30T07:03:17;100297.03;;;13.79;100.00
29935;BME280;19905;53.370;-6.314;2023-07-30T07:05:54;100296.22;;;13.96;100.00
29935;BME280;19905;53.370;-6.314;2023-07-30T07:08:23;100291.19;;;14.03;100.00
29935;BME280;19905;53.370;-6.314;2023-07-30T07:10:51;100291.66;;;14.16;100.00
29935;BME280;19905;53.370;-6.314;2023-07-30T07:13:20;100293.41;;;14.25;100.00
29935;BME280;19905;53.370;-6.314;2023-07-30T07:15:49;100294.81;;;14.19;100.00
29935;BME280;19905;53.370;-6.314;2023-07-30T07:18:17;100299.38;;;14.27;100.00
29935;BME280;19905;53.370;-6.314;2023-07-30T07:20:46;100296.19;;;14.41;100.00
29935;BME280;19905;53.370;-6.314;2023-07-30T07:23:16;100307.97;;;14.57;100.00
29935;BME280;19905;53.370;-6.314;2023-07-30T07:25:45;100298.06;;;14.59;100.00
29935;BME280;19905;53.370;-6.314;2023-07-30T07:28:14;100289.16;;;14.68;100.00
29935;BME280;19905;53.370;-6.314;2023-07-30T07:30:43;100285.50;;;14.69;100.00
29935;BME280;19905;53.370;-6.314;2023-07-30T07:33:12;100293.09;;;14.64;100.00
29935;BME280;19905;53.370;-6.314;2023-07-30T07:35:40;100282.09;;;14.59;100.00
29935;BME280;19905;53.370;-6.314;2023-07-30T07:38:09;100284.88;;;14.75;100.00
29935;BME280;19905;53.370;-6.314;2023-07-30T07:40:40;100290.72;;;14.79;100.00
29935;BME280;19905;53.370;-6.314;2023-07-30T07:43:08;100285.28;;;14.80;100.00
29935;BME280;19905;53.370;-6.314;2023-07-30T07:45:37;100296.19;;;14.95;100.00
29935;BME280;19905;53.370;-6.314;2023-07-30T07:48:05;100300.22;;;15.07;100.00
29935;BME280;19905;53.370;-6.314;2023-07-30T07:50:35;100298.16;;;15.19;100.00
29935;BME280;19905;53.370;-6.314;2023-07-30T07:53:03;100298.97;;;15.19;100.00
29935;BME280;19905;53.370;-6.314;2023-07-30T07:55:32;100299.41;;;15.07;100.00
29935;BME280;19905;53.370;-6.314;2023-07-30T07:58:02;100302.69;;;15.00;100.00
29935;BME280;19905;53.370;-6.314;2023-07-30T08:00:30;100295.06;;;15.06;100.00
29935;BME280;19905;53.370;-6.314;2023-07-30T08:02:59;100295.13;;;15.14;100.00
29935;BME280;19905;53.370;-6.314;2023-07-30T08:05:28;100279.06;;;15.23;100.00
29935;BME280;19905;53.370;-6.314;2023-07-30T08:07:56;100289.94;;;15.38;100.00
29935;BME280;19905;53.370;-6.314;2023-07-30T08:10:25;100289.47;;;15.43;100.00
29935;BME280;19905;53.370;-6.314;2023-07-30T08:12:54;100288.09;;;15.65;100.00
29935;BME280;19905;53.370;-6.314;2023-07-30T08:15:24;100278.34;;;15.82;100.00
29935;BME280;19905;53.370;-6.314;2023-07-30T08:17:52;100278.97;;;15.67;100.00
29935;BME280;19905;53.370;-6.314;2023-07-30T08:20:21;100277.16;;;15.68;100.00
29935;BME280;19905;53.370;-6.314;2023-07-30T08:22:50;100276.69;;;15.46;100.00
29935;BME280;19905;53.370;-6.314;2023-07-30T08:25:19;100286.66;;;15.44;100.00
29935;BME280;19905;53.370;-6.314;2023-07-30T08:27:48;100285.03;;;15.51;100.00
29935;BME280;19905;53.370;-6.314;2023-07-30T08:30:17;100290.22;;;15.61;100.00
29935;BME280;19905;53.370;-6.314;2023-07-30T08:32:47;100284.34;;;15.49;100.00
29935;BME280;19905;53.370;-6.314;2023-07-30T08:35:18;100291.34;;;15.50;100.00
29935;BME280;19905;53.370;-6.314;2023-07-30T08:37:46;100290.75;;;15.65;100.00
29935;BME280;19905;53.370;-6.314;2023-07-30T08:40:16;100286.00;;;15.77;100.00
29935;BME280;19905;53.370;-6.314;2023-07-30T08:42:45;100279.22;;;15.90;100.00
29935;BME280;19905;53.370;-6.314;2023-07-30T08:45:15;100281.22;;;15.96;100.00
29935;BME280;19905;53.370;-6.314;2023-07-30T08:47:45;100282.25;;;16.04;100.00
29935;BME280;19905;53.370;-6.314;2023-07-30T08:50:15;100275.72;;;15.90;100.00
29935;BME280;19905;53.370;-6.314;2023-07-30T08:52:44;100285.34;;;15.83;100.00
29935;BME280;19905;53.370;-6.314;2023-07-30T08:55:13;100283.56;;;15.99;100.00
29935;BME280;19905;53.370;-6.314;2023-07-30T08:57:44;100278.50;;;15.72;100.00
29935;BME280;19905;53.370;-6.314;2023-07-30T09:00:15;100280.16;;;15.73;100.00
29935;BME280;19905;53.370;-6.314;2023-07-30T09:02:47;100280.31;;;15.80;100.00
29935;BME280;19905;53.370;-6.314;2023-07-30T09:05:20;100283.78;;;15.64;100.00
29935;BME280;19905;53.370;-6.314;2023-07-30T09:07:49;100270.28;;;15.65;100.00
29935;BME280;19905;53.370;-6.314;2023-07-30T09:10:18;100275.84;;;15.72;100.00
29935;BME280;19905;53.370;-6.314;2023-07-30T09:12:52;100273.34;;;15.79;100.00
29935;BME280;19905;53.370;-6.314;2023-07-30T09:15:29;100293.25;;;15.66;100.00
29935;BME280;19905;53.370;-6.314;2023-07-30T09:34:00;100325.25;;;15.48;100.00
29935;BME280;19905;53.370;-6.314;2023-07-30T09:36:57;100325.69;;;15.36;100.00
29935;BME280;19905;53.370;-6.314;2023-07-30T09:39:34;100333.31;;;15.31;100.00
29935;BME280;19905;53.370;-6.314;2023-07-30T09:42:17;100333.03;;;15.16;100.00
29935;BME280;19905;53.370;-6.314;2023-07-30T09:44:51;100325.53;;;15.11;100.00
29935;BME280;19905;53.370;-6.314;2023-07-30T09:47:45;100321.28;;;15.18;100.00
29935;BME280;19905;53.370;-6.314;2023-07-30T09:50:50;100335.69;;;15.16;100.00
29935;BME280;19905;53.370;-6.314;2023-07-30T09:53:45;100321.56;;;15.15;100.00
29935;BME280;19905;53.370;-6.314;2023-07-30T09:56:18;100327.47;;;15.27;100.00
29935;BME280;19905;53.370;-6.314;2023-07-30T09:58:55;100327.63;;;15.25;100.00
29935;BME280;19905;53.370;-6.314;2023-07-30T10:05:10;100317.25;;;15.40;100.00
29935;BME280;19905;53.370;-6.314;2023-07-30T10:08:01;100324.28;;;15.49;100.00
29935;BME280;19905;53.370;-6.314;2023-07-30T10:10:32;100319.50;;;15.61;100.00
29935;BME280;19905;53.370;-6.314;2023-07-30T10:13:29;100320.41;;;15.70;100.00
29935;BME280;19905;53.370;-6.314;2023-07-30T10:36:01;100318.63;;;15.79;100.00
29935;BME280;19905;53.370;-6.314;2023-07-30T10:38:31;100317.84;;;15.94;100.00
29935;BME280;19905;53.370;-6.314;2023-07-30T10:41:02;100309.38;;;16.07;100.00
29935;BME280;19905;53.370;-6.314;2023-07-30T10:43:35;100308.38;;;16.00;100.00
29935;BME280;19905;53.370;-6.314;2023-07-30T10:46:04;100309.00;;;15.94;100.00
29935;BME280;19905;53.370;-6.314;2023-07-30T10:48:34;100298.91;;;16.06;100.00
29935;BME280;19905;53.370;-6.314;2023-07-30T10:51:09;100318.06;;;16.09;100.00
29935;BME280;19905;53.370;-6.314;2023-07-30T10:53:42;100309.91;;;16.11;100.00
29935;BME280;19905;53.370;-6.314;2023-07-30T10:56:21;100299.56;;;15.99;100.00
29935;BME280;19905;53.370;-6.314;2023-07-30T10:58:51;100304.69;;;15.93;100.00
29935;BME280;19905;53.370;-6.314;2023-07-30T11:01:24;100300.66;;;15.81;100.00
29935;BME280;19905;53.370;-6.314;2023-07-30T11:07:59;100291.44;;;16.17;100.00
29935;BME280;19905;53.370;-6.314;2023-07-30T11:22:29;100289.13;;;16.47;100.00
29935;BME280;19905;53.370;-6.314;2023-07-30T11:25:33;100303.13;;;16.41;100.00
29935;BME280;19905;53.370;-6.314;2023-07-30T11:44:38;100283.94;;;16.21;100.00
29935;BME280;19905;53.370;-6.314;2023-07-30T12:07:44;100305.38;;;16.03;100.00
29935;BME280;19905;53.370;-6.314;2023-07-30T12:31:23;100286.13;;;16.34;100.00
29935;BME280;19905;53.370;-6.314;2023-07-30T12:33:52;100284.16;;;16.36;100.00
29935;BME280;19905;53.370;-6.314;2023-07-30T12:36:20;100290.31;;;16.52;100.00
29935;BME280;19905;53.370;-6.314;2023-07-30T12:38:49;100283.31;;;16.51;100.00
29935;BME280;19905;53.370;-6.314;2023-07-30T12:41:20;100280.13;;;16.40;100.00
29935;BME280;19905;53.370;-6.314;2023-07-30T12:43:53;100286.47;;;16.39;100.00
29935;BME280;19905;53.370;-6.314;2023-07-30T12:46:25;100288.28;;;16.38;100.00
29935;BME280;19905;53.370;-6.314;2023-07-30T12:48:57;100287.63;;;16.36;100.00
29935;BME280;19905;53.370;-6.314;2023-07-30T12:51:29;100280.94;;;16.24;100.00
29935;BME280;19905;53.370;-6.314;2023-07-30T12:54:00;100291.09;;;16.20;100.00
29935;BME280;19905;53.370;-6.314;2023-07-30T12:56:32;100300.91;;;16.12;100.00
29935;BME280;19905;53.370;-6.314;2023-07-30T12:59:03;100305.25;;;16.13;100.00
29935;BME280;19905;53.370;-6.314;2023-07-30T13:01:33;100284.94;;;16.20;100.00
29935;BME280;19905;53.370;-6.314;2023-07-30T13:04:02;100291.78;;;16.39;100.00
29935;BME280;19905;53.370;-6.314;2023-07-30T13:06:30;100299.63;;;16.48;100.00
29935;BME280;19905;53.370;-6.314;2023-07-30T13:08:59;100302.44;;;16.31;100.00
29935;BME280;19905;53.370;-6.314;2023-07-30T13:11:27;100316.25;;;16.26;100.00
29935;BME280;19905;53.370;-6.314;2023-07-30T13:13:56;100317.41;;;16.15;100.00
29935;BME280;19905;53.370;-6.314;2023-07-30T13:16:27;100310.25;;;16.16;100.00
29935;BME280;19905;53.370;-6.314;2023-07-30T13:18:59;100315.91;;;16.21;100.00
29935;BME280;19905;53.370;-6.314;2023-07-30T13:21:28;100323.91;;;16.13;100.00
29935;BME280;19905;53.370;-6.314;2023-07-30T13:23:56;100315.72;;;16.06;100.00
29935;BME280;19905;53.370;-6.314;2023-07-30T13:26:25;100324.88;;;16.04;100.00
29935;BME280;19905;53.370;-6.314;2023-07-30T13:28:53;100318.22;;;15.99;100.00
29935;BME280;19905;53.370;-6.314;2023-07-30T13:31:22;100323.38;;;16.09;100.00
29935;BME280;19905;53.370;-6.314;2023-07-30T13:33:50;100313.59;;;16.18;100.00
29935;BME280;19905;53.370;-6.314;2023-07-30T13:36:20;100316.06;;;16.11;100.00
29935;BME280;19905;53.370;-6.314;2023-07-30T13:38:49;100318.69;;;16.03;100.00
29935;BME280;19905;53.370;-6.314;2023-07-30T13:41:17;100317.38;;;16.07;100.00
29935;BME280;19905;53.370;-6.314;2023-07-30T13:43:46;100315.56;;;16.16;100.00
29935;BME280;19905;53.370;-6.314;2023-07-30T13:46:15;100319.59;;;16.28;100.00
29935;BME280;19905;53.370;-6.314;2023-07-30T13:48:43;100319.13;;;16.33;100.00
29935;BME280;19905;53.370;-6.314;2023-07-30T13:51:12;100312.38;;;16.12;100.00
29935;BME280;19905;53.370;-6.314;2023-07-30T13:53:42;100318.38;;;16.06;100.00
29935;BME280;19905;53.370;-6.314;2023-07-30T13:56:10;100312.22;;;16.06;100.00
29935;BME280;19905;53.370;-6.314;2023-07-30T13:58:39;100304.22;;;16.06;100.00
29935;BME280;19905;53.370;-6.314;2023-07-30T14:01:08;100306.19;;;15.95;100.00
29935;BME280;19905;53.370;-6.314;2023-07-30T14:03:37;100311.88;;;16.00;100.00
29935;BME280;19905;53.370;-6.314;2023-07-30T14:06:06;100304.06;;;15.99;100.00
29935;BME280;19905;53.370;-6.314;2023-07-30T14:08:34;100309.06;;;16.10;100.00
29935;BME280;19905;53.370;-6.314;2023-07-30T14:11:04;100296.41;;;16.12;100.00
29935;BME280;19905;53.370;-6.314;2023-07-30T14:13:33;100292.25;;;16.26;100.00
29935;BME280;19905;53.370;-6.314;2023-07-30T14:16:01;100284.63;;;16.39;100.00
29935;BME280;19905;53.370;-6.314;2023-07-30T14:18:31;100276.63;;;16.47;100.00
29935;BME280;19905;53.370;-6.314;2023-07-30T14:21:01;100282.78;;;16.48;100.00
29935;BME280;19905;53.370;-6.314;2023-07-30T14:23:30;100265.97;;;16.56;100.00
29935;BME280;19905;53.370;-6.314;2023-07-30T14:26:01;100273.16;;;16.63;100.00
29935;BME280;19905;53.370;-6.314;2023-07-30T14:28:32;100262.97;;;16.67;100.00
29935;BME280;19905;53.370;-6.314;2023-07-30T14:31:01;100267.97;;;16.70;100.00
29935;BME280;19905;53.370;-6.314;2023-07-30T14:33:29;100257.47;;;16.60;100.00
29935;BME280;19905;53.370;-6.314;2023-07-30T14:35:58;100258.47;;;16.67;100.00
29935;BME280;19905;53.370;-6.314;2023-07-30T14:38:26;100250.00;;;16.72;100.00